createdAt,value
2023-02-02T00:01:41.370Z,102432.02
2023-02-02T00:04:16.265Z,102435.80
2023-02-02T00:06:44.851Z,102436.49
2023-02-02T00:09:16.422Z,102435.09
2023-02-02T00:11:46.865Z,102432.23
2023-02-02T00:14:15.181Z,102432.70
2023-02-02T00:16:46.443Z,102430.48
2023-02-02T00:19:25.071Z,102426.90
2023-02-02T00:21:55.274Z,102426.29
2023-02-02T00:24:24.233Z,102427.07
2023-02-02T00:26:56.016Z,102426.59
2023-02-02T00:29:29.721Z,102424.91
2023-02-02T00:31:58.586Z,102419.06
2023-02-02T00:34:27.237Z,102419.42
2023-02-02T00:36:55.948Z,102422.36
2023-02-02T00:39:26.176Z,102419.51
2023-02-02T00:41:54.885Z,102419.56
2023-02-02T00:44:24.339Z,102416.29
2023-02-02T00:46:53.232Z,102415.59
2023-02-02T00:49:22.035Z,102416.21
2023-02-02T00:51:50.345Z,102411.64
2023-02-02T00:54:18.699Z,102413.16
2023-02-02T00:56:46.997Z,102410.26
2023-02-02T00:59:15.758Z,102406.44
2023-02-02T01:01:44.810Z,102406.80
2023-02-02T01:04:13.667Z,102405.43
2023-02-02T01:06:42.000Z,102404.77
2023-02-02T01:09:10.564Z,102403.94
2023-02-02T01:11:39.006Z,102403.21
2023-02-02T01:14:07.249Z,102404.08
2023-02-02T01:16:35.794Z,102400.42
2023-02-02T01:19:04.441Z,102396.33
2023-02-02T01:21:32.897Z,102396.44
2023-02-02T01:24:01.338Z,102393.67
2023-02-02T01:26:29.663Z,102393.23
2023-02-02T01:28:58.435Z,102384.41
2023-02-02T01:31:27.119Z,102386.73
2023-02-02T01:33:55.343Z,102388.55
2023-02-02T01:36:24.707Z,102394.20
2023-02-02T01:38:53.006Z,102389.65
2023-02-02T01:41:24.149Z,102390.55
2023-02-02T01:43:56.897Z,102386.63
2023-02-02T01:46:36.693Z,102391.41
2023-02-02T01:49:08.170Z,102390.79
2023-02-02T01:51:47.507Z,102394.79
2023-02-02T01:54:21.833Z,102394.73
2023-02-02T01:57:01.077Z,102395.77
2023-02-02T01:59:30.902Z,102395.73
2023-02-02T02:01:59.750Z,102392.19
2023-02-02T02:04:31.280Z,102394.46
2023-02-02T02:07:02.242Z,102393.38
2023-02-02T02:09:30.389Z,102399.12
2023-02-02T02:11:58.764Z,102397.20
2023-02-02T02:14:28.579Z,102394.40
2023-02-02T02:17:18.688Z,102391.79
2023-02-02T02:20:15.397Z,102388.48
2023-02-02T02:23:08.633Z,102393.50
2023-02-02T02:25:58.739Z,102398.23
2023-02-02T02:29:04.844Z,102397.43
2023-02-02T02:32:08.735Z,102396.92
2023-02-02T02:34:47.675Z,102395.40
2023-02-02T02:37:47.185Z,102391.63
2023-02-02T02:40:31.677Z,102396.33
2023-02-02T02:43:05.672Z,102392.71
2023-02-02T02:45:37.609Z,102389.61
2023-02-02T02:48:08.464Z,102384.27
2023-02-02T02:50:37.823Z,102381.61
2023-02-02T02:53:11.812Z,102382.33
2023-02-02T02:55:58.428Z,102385.24
2023-02-02T02:59:00.772Z,102382.02
2023-02-02T03:01:59.754Z,102384.53
2023-02-02T03:04:30.739Z,102381.19
2023-02-02T03:07:05.197Z,102381.36
2023-02-02T03:09:39.809Z,102379.11
2023-02-02T03:12:08.664Z,102377.77
2023-02-02T03:14:38.257Z,102378.45
2023-02-02T03:17:06.368Z,102379.08
2023-02-02T03:19:34.723Z,102373.87
2023-02-02T03:22:03.030Z,102374.80
2023-02-02T03:24:31.333Z,102375.00
2023-02-02T03:26:59.802Z,102375.08
2023-02-02T03:29:28.961Z,102372.42
2023-02-02T03:31:57.735Z,102371.44
2023-02-02T03:34:26.119Z,102371.58
2023-02-02T03:36:54.324Z,102370.55
2023-02-02T03:39:22.742Z,102373.27
2023-02-02T03:41:50.903Z,102378.02
2023-02-02T03:44:19.205Z,102379.86
2023-02-02T03:46:47.458Z,102376.96
2023-02-02T03:49:15.708Z,102373.75
2023-02-02T03:51:43.939Z,102375.91
2023-02-02T03:54:12.422Z,102375.96
2023-02-02T03:56:40.856Z,102375.45
2023-02-02T03:59:09.179Z,102377.05
2023-02-02T04:01:38.755Z,102380.91
2023-02-02T04:04:07.012Z,102380.17
2023-02-02T04:06:35.403Z,102378.94
2023-02-02T04:09:03.805Z,102379.69
2023-02-02T04:11:32.975Z,102377.30
2023-02-02T04:14:01.679Z,102373.14
2023-02-02T04:16:30.064Z,102378.48
2023-02-02T04:18:58.460Z,102379.63
2023-02-02T04:21:26.762Z,102379.56
2023-02-02T04:23:55.028Z,102382.63
2023-02-02T04:26:24.088Z,102378.91
2023-02-02T04:28:53.606Z,102376.60
2023-02-02T04:31:22.022Z,102378.21
2023-02-02T04:33:50.437Z,102379.37
2023-02-02T04:36:18.696Z,102377.05
2023-02-02T04:38:53.485Z,102379.56
2023-02-02T04:41:24.595Z,102383.44
2023-02-02T04:43:52.879Z,102379.83
2023-02-02T04:46:21.029Z,102381.09
2023-02-02T04:48:49.747Z,102381.65
2023-02-02T04:51:17.894Z,102386.05
2023-02-02T04:53:47.419Z,102389.78
2023-02-02T04:56:18.848Z,102389.88
2023-02-02T04:58:47.320Z,102385.78
2023-02-02T05:01:18.045Z,102389.92
2023-02-02T05:03:47.539Z,102390.11
2023-02-02T05:06:16.953Z,102390.10
2023-02-02T05:08:46.219Z,102389.06
2023-02-02T05:11:18.274Z,102395.57
2023-02-02T05:13:48.829Z,102394.27
2023-02-02T05:16:18.439Z,102402.05
2023-02-02T05:18:51.922Z,102396.64
2023-02-02T05:21:21.915Z,102401.23
2023-02-02T05:23:50.328Z,102409.93
2023-02-02T05:26:23.320Z,102410.27
2023-02-02T05:28:53.260Z,102410.79
2023-02-02T05:31:22.376Z,102413.49
2023-02-02T05:33:50.574Z,102415.52
2023-02-02T05:36:18.950Z,102413.45
2023-02-02T05:38:47.387Z,102414.34
2023-02-02T05:41:16.952Z,102416.09
2023-02-02T05:43:45.312Z,102419.17
2023-02-02T05:46:13.868Z,102419.05
2023-02-02T05:48:42.071Z,102417.88
2023-02-02T05:51:37.671Z,102419.75
2023-02-02T05:54:06.377Z,102424.50
2023-02-02T05:56:34.485Z,102429.07
2023-02-02T05:59:02.596Z,102427.95
2023-02-02T06:01:30.841Z,102432.27
2023-02-02T06:03:59.513Z,102432.30
2023-02-02T06:06:27.887Z,102431.10
2023-02-02T06:08:56.194Z,102436.36
2023-02-02T06:11:24.357Z,102436.97
2023-02-02T06:13:52.841Z,102438.02
2023-02-02T06:16:21.330Z,102435.00
2023-02-02T06:18:49.504Z,102436.75
2023-02-02T06:21:17.744Z,102437.64
2023-02-02T06:23:47.080Z,102440.05
2023-02-02T06:26:16.552Z,102450.36
2023-02-02T06:28:49.689Z,102447.77
2023-02-02T06:31:18.593Z,102443.70
2023-02-02T06:33:55.020Z,102442.92
2023-02-02T06:36:25.509Z,102441.16
2023-02-02T06:38:56.138Z,102440.66
2023-02-02T06:41:25.254Z,102440.70
2023-02-02T06:43:53.456Z,102444.14
2023-02-02T06:46:22.062Z,102443.67
2023-02-02T06:48:50.310Z,102446.02
2023-02-02T06:51:18.528Z,102446.63
2023-02-02T06:53:50.460Z,102452.52
2023-02-02T06:56:18.644Z,102452.55
2023-02-02T06:58:46.833Z,102455.29
2023-02-02T07:01:15.550Z,102458.65
2023-02-02T07:03:43.787Z,102459.34
2023-02-02T07:06:17.815Z,102459.16
2023-02-02T07:09:02.036Z,102463.41
2023-02-02T07:11:34.727Z,102463.98
2023-02-02T07:14:09.671Z,102463.45
2023-02-02T07:16:38.365Z,102462.13
2023-02-02T07:19:07.162Z,102465.19
2023-02-02T07:21:35.919Z,102467.23
2023-02-02T07:24:06.550Z,102472.17
2023-02-02T07:26:36.340Z,102473.56
2023-02-02T07:29:05.682Z,102472.92
2023-02-02T07:31:36.319Z,102475.04
2023-02-02T07:34:05.684Z,102480.71
2023-02-02T07:36:34.203Z,102487.27
2023-02-02T07:39:03.475Z,102485.49
2023-02-02T07:41:34.181Z,102483.83
2023-02-02T07:44:03.789Z,102494.30
2023-02-02T07:46:32.370Z,102495.10
2023-02-02T07:49:00.854Z,102487.21
2023-02-02T07:51:29.033Z,102484.79
2023-02-02T07:53:57.195Z,102489.75
2023-02-02T07:56:27.895Z,102486.49
2023-02-02T07:58:57.078Z,102482.10
2023-02-02T08:01:26.945Z,102487.70
2023-02-02T08:03:58.019Z,102490.27
2023-02-02T08:06:35.539Z,102489.17
2023-02-02T08:09:06.167Z,102492.65
2023-02-02T08:11:36.665Z,102497.96
2023-02-02T08:14:06.330Z,102500.89
2023-02-02T08:16:34.879Z,102502.17
2023-02-02T08:19:03.221Z,102505.04
2023-02-02T08:21:35.494Z,102503.90
2023-02-02T08:24:04.473Z,102505.98
2023-02-02T08:26:33.132Z,102507.50
2023-02-02T08:29:05.222Z,102508.21
2023-02-02T08:31:39.536Z,102508.35
2023-02-02T08:34:08.514Z,102514.47
2023-02-02T08:36:37.544Z,102517.95
2023-02-02T08:39:12.558Z,102512.20
2023-02-02T08:41:40.993Z,102520.56
2023-02-02T08:44:12.678Z,102523.20
2023-02-02T08:46:41.338Z,102524.28
2023-02-02T08:49:14.618Z,102529.21
2023-02-02T08:51:43.167Z,102527.73
2023-02-02T08:54:11.964Z,102526.13
2023-02-02T08:56:40.200Z,102529.95
2023-02-02T08:59:08.617Z,102535.57
2023-02-02T09:01:36.926Z,102538.88
2023-02-02T09:04:15.042Z,102546.27
2023-02-02T09:06:44.363Z,102546.77
2023-02-02T09:09:16.726Z,102542.86
2023-02-02T09:11:45.212Z,102549.70
2023-02-02T09:14:14.452Z,102552.08
2023-02-02T09:16:43.237Z,102555.40
2023-02-02T09:19:12.329Z,102553.67
2023-02-02T09:21:42.982Z,102559.12
2023-02-02T09:24:13.908Z,102562.73
2023-02-02T09:26:43.823Z,102555.44
2023-02-02T09:29:15.810Z,102558.11
2023-02-02T09:31:44.174Z,102565.59
2023-02-02T09:34:14.889Z,102563.16
2023-02-02T09:36:44.624Z,102567.30
2023-02-02T09:39:13.763Z,102567.81
2023-02-02T09:41:42.108Z,102567.95
2023-02-02T09:44:29.521Z,102569.05
2023-02-02T09:47:12.766Z,102567.86
2023-02-02T09:50:15.162Z,102572.16
2023-02-02T09:52:48.936Z,102568.13
2023-02-02T09:55:42.441Z,102578.10
2023-02-02T09:58:26.408Z,102572.52
2023-02-02T10:01:12.388Z,102570.79
2023-02-02T10:04:11.520Z,102573.70
2023-02-02T10:06:41.864Z,102570.35
2023-02-02T10:09:35.028Z,102572.77
2023-02-02T10:12:22.126Z,102577.61
2023-02-02T10:15:00.868Z,102573.21
2023-02-02T10:17:35.193Z,102573.59
2023-02-02T10:20:28.679Z,102577.55
2023-02-02T10:23:03.414Z,102573.30
2023-02-02T10:25:35.468Z,102573.30
2023-02-02T10:28:12.130Z,102573.80
2023-02-02T10:30:55.779Z,102574.35
2023-02-02T10:33:32.472Z,102570.92
2023-02-02T10:36:12.267Z,102567.86
2023-02-02T10:38:49.626Z,102571.66
2023-02-02T10:41:26.919Z,102569.09
2023-02-02T10:44:08.478Z,102570.27
2023-02-02T10:46:50.293Z,102567.09
2023-02-02T10:49:29.166Z,102566.13
2023-02-02T10:52:10.504Z,102567.45
2023-02-02T10:54:57.323Z,102569.08
2023-02-02T10:57:43.265Z,102569.47
2023-02-02T11:00:23.589Z,102566.58
2023-02-02T11:02:53.609Z,102564.27
2023-02-02T11:05:28.855Z,102563.75
2023-02-02T11:07:57.239Z,102567.11
2023-02-02T11:10:26.104Z,102565.67
2023-02-02T11:12:55.859Z,102557.94
2023-02-02T11:15:31.010Z,102554.94
2023-02-02T11:18:30.935Z,102555.56
2023-02-02T11:20:59.408Z,102545.55
2023-02-02T11:23:29.032Z,102551.98
2023-02-02T11:26:00.083Z,102554.20
2023-02-02T11:28:34.380Z,102548.86
2023-02-02T11:31:03.553Z,102550.52
2023-02-02T11:33:34.562Z,102552.42
2023-02-02T11:36:28.633Z,102551.95
2023-02-02T11:39:20.441Z,102555.29
2023-02-02T11:41:48.785Z,102547.27
2023-02-02T11:44:28.608Z,102544.53
2023-02-02T11:46:57.019Z,102543.59
2023-02-02T11:49:26.298Z,102543.58
2023-02-02T11:52:03.523Z,102547.33
2023-02-02T11:54:34.543Z,102542.33
2023-02-02T11:57:10.228Z,102532.95
2023-02-02T11:59:40.496Z,102530.13
2023-02-02T12:02:28.221Z,102527.48
2023-02-02T12:05:14.020Z,102524.59
2023-02-02T12:07:44.051Z,102523.54
2023-02-02T12:10:20.120Z,102519.61
2023-02-02T12:13:10.387Z,102516.10
2023-02-02T12:16:01.028Z,102516.95
2023-02-02T12:19:14.417Z,102511.91
2023-02-02T12:21:45.804Z,102508.34
2023-02-02T12:24:32.653Z,102505.29
2023-02-02T12:27:30.185Z,102501.66
2023-02-02T12:30:14.830Z,102494.62
2023-02-02T12:33:20.465Z,102500.05
2023-02-02T12:36:01.670Z,102495.00
2023-02-02T12:38:56.019Z,102493.56
2023-02-02T12:41:44.096Z,102495.76
2023-02-02T12:44:55.416Z,102496.11
2023-02-02T12:47:55.061Z,102489.05
2023-02-02T12:50:45.183Z,102484.61
2023-02-02T12:53:43.038Z,102476.80
2023-02-02T12:56:17.494Z,102474.48
2023-02-02T12:59:01.804Z,102467.15
2023-02-02T13:01:38.724Z,102464.02
2023-02-02T13:04:31.397Z,102465.08
2023-02-02T13:07:21.340Z,102461.09
2023-02-02T13:10:00.914Z,102455.15
2023-02-02T13:12:33.317Z,102452.94
2023-02-02T13:15:06.722Z,102450.77
2023-02-02T13:17:58.284Z,102445.29
2023-02-02T13:20:56.071Z,102442.36
2023-02-02T13:23:39.423Z,102433.45
2023-02-02T13:26:16.339Z,102434.91
2023-02-02T13:29:16.607Z,102435.55
2023-02-02T13:31:55.598Z,102431.96
2023-02-02T13:34:44.758Z,102432.27
2023-02-02T13:37:33.401Z,102433.42
2023-02-02T13:40:21.206Z,102429.66
2023-02-02T13:42:49.336Z,102433.67
2023-02-02T13:45:38.004Z,102430.69
2023-02-02T13:48:20.206Z,102433.21
2023-02-02T13:51:11.787Z,102427.20
2023-02-02T13:54:04.685Z,102426.63
2023-02-02T13:56:43.324Z,102422.31
2023-02-02T13:59:20.259Z,102416.02
2023-02-02T14:01:51.399Z,102414.53
2023-02-02T14:04:27.402Z,102421.98
2023-02-02T14:06:57.482Z,102424.04
2023-02-02T14:09:32.012Z,102413.92
2023-02-02T14:12:04.737Z,102419.36
2023-02-02T14:14:35.691Z,102421.52
2023-02-02T14:17:08.547Z,102420.55
2023-02-02T14:19:36.714Z,102428.98
2023-02-02T14:22:13.591Z,102426.34
2023-02-02T14:24:52.390Z,102428.68
2023-02-02T14:27:20.698Z,102428.13
2023-02-02T14:29:52.336Z,102425.69
2023-02-02T14:32:33.016Z,102427.27
2023-02-02T14:35:24.027Z,102429.52
2023-02-02T14:38:16.610Z,102423.90
2023-02-02T14:40:54.190Z,102423.28
2023-02-02T14:43:25.269Z,102426.20
2023-02-02T14:46:15.776Z,102427.42
2023-02-02T14:49:05.678Z,102433.61
2023-02-02T14:51:55.022Z,102436.73
2023-02-02T14:54:32.315Z,102441.49
2023-02-02T14:57:20.085Z,102439.30
2023-02-02T14:59:49.051Z,102438.97
2023-02-02T15:02:34.715Z,102432.88
2023-02-02T15:05:31.526Z,102433.45
2023-02-02T15:08:35.284Z,102431.40
2023-02-02T15:11:08.496Z,102434.49
2023-02-02T15:13:38.326Z,102437.86
2023-02-02T15:16:31.051Z,102434.34
2023-02-02T15:19:13.599Z,102434.78
2023-02-02T15:21:46.237Z,102432.27
2023-02-02T15:24:22.716Z,102435.38
2023-02-02T15:26:52.629Z,102440.09
2023-02-02T15:29:56.987Z,102446.07
2023-02-02T15:32:27.254Z,102444.90
2023-02-02T15:35:01.626Z,102451.70
2023-02-02T15:37:38.106Z,102447.76
2023-02-02T15:40:15.030Z,102446.73
2023-02-02T15:42:47.177Z,102446.47
2023-02-02T15:45:43.335Z,102446.30
2023-02-02T15:48:21.631Z,102446.05
2023-02-02T15:50:53.302Z,102449.05
2023-02-02T15:53:28.307Z,102441.31
2023-02-02T15:55:57.658Z,102442.40
2023-02-02T15:58:35.134Z,102441.91
2023-02-02T16:01:14.512Z,102442.91
2023-02-02T16:04:11.092Z,102439.22
2023-02-02T16:06:40.456Z,102434.73
2023-02-02T16:09:22.476Z,102432.36
2023-02-02T16:11:51.305Z,102438.07
2023-02-02T16:14:19.721Z,102434.95
2023-02-02T16:16:49.165Z,102437.98
2023-02-02T16:19:25.620Z,102436.73
2023-02-02T16:22:07.930Z,102432.20
2023-02-02T16:24:52.827Z,102433.84
2023-02-02T16:27:27.594Z,102429.72
2023-02-02T16:30:01.205Z,102430.36
2023-02-02T16:32:38.100Z,102427.75
2023-02-02T16:35:34.583Z,102432.27
2023-02-02T16:38:36.119Z,102429.73
2023-02-02T16:41:06.210Z,102433.23
2023-02-02T16:43:36.859Z,102433.73
2023-02-02T16:46:09.443Z,102435.45
2023-02-02T16:49:00.218Z,102436.56
2023-02-02T16:51:32.890Z,102434.56
2023-02-02T16:54:19.514Z,102435.42
2023-02-02T16:56:51.353Z,102441.79
2023-02-02T16:59:27.095Z,102446.61
2023-02-02T17:01:59.213Z,102447.75
2023-02-02T17:04:35.008Z,102452.65
2023-02-02T17:07:22.103Z,102457.07
2023-02-02T17:09:50.849Z,102458.17
2023-02-02T17:12:34.249Z,102466.77
2023-02-02T17:15:28.613Z,102469.69
2023-02-02T17:17:58.066Z,102474.00
2023-02-02T17:20:27.458Z,102474.04
2023-02-02T17:23:04.073Z,102476.33
2023-02-02T17:25:40.679Z,102472.05
2023-02-02T17:28:16.519Z,102473.35
2023-02-02T17:30:47.050Z,102478.46
2023-02-02T17:33:19.140Z,102477.48
2023-02-02T17:35:54.819Z,102476.40
2023-02-02T17:38:25.728Z,102480.16
2023-02-02T17:40:56.239Z,102482.41
2023-02-02T17:43:24.549Z,102486.55
2023-02-02T17:45:53.505Z,102484.16
2023-02-02T17:48:22.513Z,102482.44
2023-02-02T17:50:50.860Z,102487.98
2023-02-02T17:53:21.938Z,102487.27
2023-02-02T17:55:50.694Z,102486.28
2023-02-02T17:58:19.285Z,102488.35
2023-02-02T18:00:52.487Z,102489.91
2023-02-02T18:03:34.462Z,102491.24
2023-02-02T18:06:03.593Z,102492.95
2023-02-02T18:08:33.118Z,102493.11
2023-02-02T18:11:01.406Z,102496.73
2023-02-02T18:13:29.850Z,102499.32
2023-02-02T18:15:57.991Z,102508.60
2023-02-02T18:18:27.144Z,102510.34
2023-02-02T18:20:55.351Z,102510.63
2023-02-02T18:23:23.577Z,102507.06
2023-02-02T18:25:52.460Z,102508.73
2023-02-02T18:28:20.807Z,102507.55
2023-02-02T18:30:49.049Z,102507.14
2023-02-02T18:33:17.896Z,102507.95
2023-02-02T18:35:47.828Z,102509.32
2023-02-02T18:38:16.087Z,102513.16
2023-02-02T18:40:44.295Z,102512.92
2023-02-02T18:43:12.581Z,102515.87
2023-02-02T18:45:41.139Z,102516.64
2023-02-02T18:48:09.531Z,102516.48
2023-02-02T18:50:37.807Z,102516.70
2023-02-02T18:53:06.660Z,102520.11
2023-02-02T18:55:37.636Z,102519.59
2023-02-02T18:58:06.353Z,102524.88
2023-02-02T19:00:34.627Z,102525.40
2023-02-02T19:03:02.938Z,102523.27
2023-02-02T19:05:31.775Z,102525.01
2023-02-02T19:08:00.118Z,102523.07
2023-02-02T19:10:28.281Z,102521.90
2023-02-02T19:13:20.013Z,102525.44
2023-02-02T19:15:50.912Z,102528.84
2023-02-02T19:18:24.316Z,102530.16
2023-02-02T19:20:52.850Z,102527.46
2023-02-02T19:23:23.494Z,102522.48
2023-02-02T19:25:53.580Z,102526.95
2023-02-02T19:28:23.329Z,102533.93
2023-02-02T19:30:53.605Z,102535.74
2023-02-02T19:33:34.429Z,102533.75
2023-02-02T19:36:02.900Z,102535.09
2023-02-02T19:38:31.079Z,102533.91
2023-02-02T19:41:01.363Z,102535.93
2023-02-02T19:43:30.547Z,102533.78
2023-02-02T19:46:00.397Z,102537.80
2023-02-02T19:48:35.066Z,102537.05
2023-02-02T19:51:33.952Z,102534.95
2023-02-02T19:54:02.769Z,102539.25
2023-02-02T19:56:38.304Z,102549.77
2023-02-02T19:59:16.828Z,102544.73
2023-02-02T20:01:45.229Z,102542.96
2023-02-02T20:04:15.600Z,102542.39
2023-02-02T20:06:58.050Z,102543.23
2023-02-02T20:09:33.766Z,102543.18
2023-02-02T20:12:18.793Z,102545.45
2023-02-02T20:14:47.927Z,102546.21
2023-02-02T20:17:36.389Z,102545.04
2023-02-02T20:20:16.707Z,102549.55
2023-02-02T20:22:45.018Z,102544.88
2023-02-02T20:25:15.429Z,102541.92
2023-02-02T20:27:44.391Z,102545.07
2023-02-02T20:30:26.609Z,102546.70
2023-02-02T20:33:00.143Z,102547.45
2023-02-02T20:35:38.918Z,102542.91
2023-02-02T20:38:26.465Z,102541.77
2023-02-02T20:40:56.909Z,102544.58
2023-02-02T20:43:25.120Z,102546.89
2023-02-02T20:45:53.490Z,102545.16
2023-02-02T20:48:22.331Z,102538.31
2023-02-02T20:50:50.588Z,102543.23
2023-02-02T20:53:18.812Z,102543.58
2023-02-02T20:55:47.283Z,102543.80
2023-02-02T20:58:15.596Z,102542.49
2023-02-02T21:00:44.001Z,102539.53
2023-02-02T21:03:12.524Z,102539.98
2023-02-02T21:05:40.854Z,102537.61
2023-02-02T21:08:09.533Z,102537.98
2023-02-02T21:10:38.346Z,102537.45
2023-02-02T21:13:07.436Z,102540.88
2023-02-02T21:15:35.639Z,102538.81
2023-02-02T21:18:04.300Z,102541.30
2023-02-02T21:20:32.461Z,102544.17
2023-02-02T21:23:00.696Z,102540.38
2023-02-02T21:25:28.991Z,102538.42
2023-02-02T21:27:57.812Z,102540.86
2023-02-02T21:30:26.957Z,102536.63
2023-02-02T21:32:55.655Z,102537.67
2023-02-02T21:35:25.928Z,102544.07
2023-02-02T21:37:57.859Z,102547.22
2023-02-02T21:40:31.000Z,102545.63
2023-02-02T21:43:01.621Z,102547.52
2023-02-02T21:45:37.197Z,102547.38
2023-02-02T21:48:27.054Z,102549.63
2023-02-02T21:50:56.276Z,102552.92
2023-02-02T21:53:27.637Z,102553.11
2023-02-02T21:55:58.718Z,102556.98
2023-02-02T21:58:37.864Z,102553.41
2023-02-02T22:01:33.138Z,102551.29
2023-02-02T22:04:01.431Z,102547.60
2023-02-02T22:06:35.601Z,102546.30
2023-02-02T22:09:25.278Z,102548.16
2023-02-02T22:12:06.094Z,102544.58
2023-02-02T22:14:40.379Z,102542.48
2023-02-02T22:17:25.984Z,102541.70
2023-02-02T22:20:01.393Z,102542.47
2023-02-02T22:22:34.651Z,102547.45
2023-02-02T22:25:23.096Z,102548.52
2023-02-02T22:27:55.624Z,102547.04
2023-02-02T22:30:37.764Z,102545.98
2023-02-02T22:33:08.190Z,102547.09
2023-02-02T22:35:37.734Z,102551.09
2023-02-02T22:38:07.024Z,102546.69
2023-02-02T22:40:35.566Z,102552.92
2023-02-02T22:43:06.117Z,102547.58
2023-02-02T22:45:35.319Z,102552.61
2023-02-02T22:48:04.752Z,102551.08
2023-02-02T22:50:33.998Z,102552.64
2023-02-02T22:53:04.225Z,102551.39
2023-02-02T22:55:34.576Z,102553.15
2023-02-02T22:58:02.840Z,102553.75
2023-02-02T23:00:32.786Z,102555.85
2023-02-02T23:03:01.340Z,102556.44
2023-02-02T23:05:30.198Z,102555.94
2023-02-02T23:07:58.384Z,102551.71
2023-02-02T23:10:28.193Z,102547.73
2023-02-02T23:12:56.934Z,102549.95
2023-02-02T23:15:25.356Z,102552.44
2023-02-02T23:17:54.673Z,102550.27
2023-02-02T23:20:23.357Z,102551.67
2023-02-02T23:22:51.562Z,102551.70
2023-02-02T23:25:20.042Z,102549.27
2023-02-02T23:27:48.648Z,102540.16
2023-02-02T23:30:17.429Z,102541.81
2023-02-02T23:32:45.651Z,102540.79
2023-02-02T23:35:14.071Z,102540.52
2023-02-02T23:37:42.569Z,102539.31
2023-02-02T23:40:12.322Z,102535.63
2023-02-02T23:42:40.764Z,102539.64
2023-02-02T23:45:09.755Z,102539.20
2023-02-02T23:47:38.659Z,102545.09
2023-02-02T23:50:09.155Z,102545.29
2023-02-02T23:52:38.515Z,102544.30
2023-02-02T23:55:08.221Z,102545.17
2023-02-02T23:57:37.297Z,102542.77
